createdAt,value
2023-03-11T00:01:45.342Z,3.49
2023-03-11T00:04:11.676Z,3.44
2023-03-11T00:06:38.000Z,3.37
2023-03-11T00:09:04.336Z,3.50
2023-03-11T00:11:30.655Z,3.42
2023-03-11T00:13:56.990Z,3.42
2023-03-11T00:16:23.347Z,3.24
2023-03-11T00:18:49.674Z,3.48
2023-03-11T00:21:15.990Z,3.47
2023-03-11T00:23:42.318Z,3.46
2023-03-11T00:26:08.653Z,3.28
2023-03-11T00:28:34.989Z,3.18
2023-03-11T00:31:01.339Z,3.11
2023-03-11T00:33:27.663Z,3.13
2023-03-11T00:35:54.037Z,3.21
2023-03-11T00:38:20.419Z,3.24
2023-03-11T00:40:46.775Z,3.30
2023-03-11T00:43:13.101Z,3.34
2023-03-11T00:45:39.434Z,3.41
2023-03-11T00:48:05.753Z,3.46
2023-03-11T00:50:32.066Z,3.56
2023-03-11T00:52:58.415Z,3.33
2023-03-11T00:55:24.704Z,3.38
2023-03-11T00:57:51.011Z,3.38
2023-03-11T01:00:17.315Z,3.30
2023-03-11T01:02:43.659Z,3.40
2023-03-11T01:05:09.969Z,3.48
2023-03-11T01:07:36.298Z,3.44
2023-03-11T01:10:02.639Z,3.66
2023-03-11T01:12:28.956Z,3.53
2023-03-11T01:14:55.269Z,3.43
2023-03-11T01:17:21.575Z,3.51
2023-03-11T01:19:47.904Z,3.47
2023-03-11T01:22:14.221Z,3.47
2023-03-11T01:24:40.533Z,3.62
2023-03-11T01:27:06.852Z,3.71
2023-03-11T01:29:33.158Z,3.84
2023-03-11T01:31:59.501Z,3.87
2023-03-11T01:34:25.849Z,3.94
2023-03-11T01:36:52.178Z,4.08
2023-03-11T01:39:18.490Z,4.17
2023-03-11T01:41:44.803Z,3.99
2023-03-11T01:44:11.105Z,4.09
2023-03-11T01:46:37.480Z,4.14
2023-03-11T01:49:03.815Z,4.15
2023-03-11T01:51:30.132Z,4.05
2023-03-11T01:53:56.429Z,4.17
2023-03-11T01:56:22.750Z,4.17
2023-03-11T01:58:49.061Z,4.07
2023-03-11T02:01:15.410Z,4.05
2023-03-11T02:03:41.748Z,4.06
2023-03-11T02:06:08.081Z,4.02
2023-03-11T02:08:34.409Z,3.94
2023-03-11T02:11:00.706Z,4.04
2023-03-11T02:13:27.013Z,3.87
2023-03-11T02:15:53.338Z,3.90
2023-03-11T02:18:19.660Z,3.95
2023-03-11T02:20:45.971Z,4.02
2023-03-11T02:23:12.274Z,4.02
2023-03-11T02:25:38.655Z,4.06
2023-03-11T02:28:05.108Z,4.09
2023-03-11T02:30:31.428Z,4.27
2023-03-11T02:32:57.741Z,4.30
2023-03-11T02:35:24.067Z,4.41
2023-03-11T02:37:50.400Z,4.40
2023-03-11T02:40:16.690Z,4.42
2023-03-11T02:42:42.998Z,4.24
2023-03-11T02:45:09.301Z,4.18
2023-03-11T02:47:35.653Z,4.20
2023-03-11T02:50:02.134Z,4.13
2023-03-11T02:52:28.460Z,4.03
2023-03-11T02:54:54.781Z,4.13
2023-03-11T02:57:21.111Z,3.99
2023-03-11T02:59:47.430Z,4.03
2023-03-11T03:02:13.752Z,4.11
2023-03-11T03:04:40.056Z,4.16
2023-03-11T03:07:06.379Z,4.10
2023-03-11T03:09:32.702Z,4.23
2023-03-11T03:11:59.024Z,4.22
2023-03-11T03:14:25.326Z,4.28
2023-03-11T03:16:51.762Z,4.27
2023-03-11T03:19:18.176Z,4.21
2023-03-11T03:21:44.494Z,4.31
2023-03-11T03:24:10.814Z,4.26
2023-03-11T03:26:37.118Z,4.24
2023-03-11T03:29:03.430Z,4.17
2023-03-11T03:31:29.782Z,4.25
2023-03-11T03:33:56.092Z,4.29
2023-03-11T03:36:22.403Z,4.42
2023-03-11T03:38:48.742Z,4.50
2023-03-11T03:41:15.057Z,4.52
2023-03-11T03:43:41.366Z,4.44
2023-03-11T03:46:07.710Z,4.37
2023-03-11T03:48:34.102Z,4.38
2023-03-11T03:51:00.402Z,4.29
2023-03-11T03:53:26.696Z,4.34
2023-03-11T03:55:53.021Z,4.32
2023-03-11T03:58:19.328Z,4.29
2023-03-11T04:00:45.630Z,4.28
2023-03-11T04:03:12.019Z,4.31
2023-03-11T04:05:38.361Z,4.36
2023-03-11T04:08:04.670Z,4.39
2023-03-11T04:10:30.970Z,4.34
2023-03-11T04:12:57.290Z,4.38
2023-03-11T04:15:23.630Z,4.40
2023-03-11T04:17:49.966Z,4.39
2023-03-11T04:20:16.284Z,4.35
2023-03-11T04:22:42.590Z,4.41
2023-03-11T04:25:08.917Z,4.40
2023-03-11T04:27:35.244Z,4.45
2023-03-11T04:30:01.587Z,4.47
2023-03-11T04:32:27.979Z,4.52
2023-03-11T04:34:54.301Z,4.51
2023-03-11T04:37:20.611Z,4.52
2023-03-11T04:39:46.913Z,4.55
2023-03-11T04:42:13.224Z,4.54
2023-03-11T04:44:39.547Z,4.44
2023-03-11T04:47:05.858Z,4.51
2023-03-11T04:49:32.178Z,4.51
2023-03-11T04:51:58.479Z,4.49
2023-03-11T04:54:24.782Z,4.52
2023-03-11T04:56:51.094Z,4.50
2023-03-11T04:59:17.407Z,4.49
2023-03-11T05:01:43.729Z,4.53
2023-03-11T05:04:10.119Z,4.56
2023-03-11T05:06:36.453Z,4.59
2023-03-11T05:09:02.750Z,4.61
2023-03-11T05:11:29.085Z,4.60
2023-03-11T05:13:55.414Z,4.67
2023-03-11T05:16:21.860Z,4.67
2023-03-11T05:18:48.225Z,4.62
2023-03-11T05:21:14.534Z,4.62
2023-03-11T05:23:40.840Z,4.61
2023-03-11T05:26:07.140Z,4.62
2023-03-11T05:28:33.462Z,4.62
2023-03-11T05:30:59.790Z,4.64
2023-03-11T05:33:26.110Z,4.66
2023-03-11T05:35:52.472Z,4.78
2023-03-11T05:38:18.785Z,4.72
2023-03-11T05:40:45.105Z,4.63
2023-03-11T05:43:11.436Z,4.59
2023-03-11T05:45:37.748Z,4.66
2023-03-11T05:48:04.065Z,4.59
2023-03-11T05:50:30.362Z,4.56
2023-03-11T05:52:56.660Z,4.54
2023-03-11T05:55:22.964Z,4.55
2023-03-11T05:57:49.294Z,4.48
2023-03-11T06:00:15.604Z,4.48
2023-03-11T06:02:41.939Z,4.51
2023-03-11T06:05:08.682Z,4.51
2023-03-11T06:07:35.380Z,4.51
2023-03-11T06:10:01.710Z,4.56
2023-03-11T06:12:28.037Z,4.55
2023-03-11T06:14:54.339Z,4.53
2023-03-11T06:17:20.642Z,4.54
2023-03-11T06:19:46.972Z,4.56
2023-03-11T06:22:13.275Z,4.61
2023-03-11T06:24:39.593Z,4.65
2023-03-11T06:27:05.925Z,4.70
2023-03-11T06:29:32.273Z,4.75
2023-03-11T06:31:58.594Z,4.74
2023-03-11T06:34:24.958Z,4.67
2023-03-11T06:36:51.263Z,4.69
2023-03-11T06:39:17.587Z,4.77
2023-03-11T06:41:43.909Z,4.85
2023-03-11T06:44:10.229Z,4.88
2023-03-11T06:46:36.540Z,4.83
2023-03-11T06:49:02.855Z,4.84
2023-03-11T06:51:29.187Z,4.80
2023-03-11T06:53:55.510Z,4.70
2023-03-11T06:56:21.829Z,4.73
2023-03-11T06:58:48.176Z,4.80
2023-03-11T07:01:14.619Z,4.83
2023-03-11T07:03:41.014Z,4.83
2023-03-11T07:06:07.342Z,4.86
2023-03-11T07:08:33.651Z,4.88
2023-03-11T07:10:59.948Z,4.76
2023-03-11T07:13:26.252Z,4.81
2023-03-11T07:15:52.575Z,4.77
2023-03-11T07:18:18.893Z,4.74
2023-03-11T07:20:45.208Z,4.77
2023-03-11T07:23:11.524Z,4.87
2023-03-11T07:25:37.833Z,4.86
2023-03-11T07:28:04.162Z,4.96
2023-03-11T07:30:30.529Z,4.93
2023-03-11T07:32:56.886Z,4.90
2023-03-11T07:35:23.280Z,4.99
2023-03-11T07:37:49.608Z,4.98
2023-03-11T07:40:16.223Z,4.98
2023-03-11T07:42:42.609Z,4.91
2023-03-11T07:45:08.951Z,4.65
2023-03-11T07:47:35.273Z,4.68
2023-03-11T07:50:01.594Z,4.75
2023-03-11T07:52:27.900Z,4.66
2023-03-11T07:54:54.206Z,4.54
2023-03-11T07:57:20.537Z,4.57
2023-03-11T07:59:46.843Z,4.53
2023-03-11T08:02:13.219Z,4.45
2023-03-11T08:04:39.546Z,4.37
2023-03-11T08:07:05.858Z,4.39
2023-03-11T08:09:32.170Z,4.20
2023-03-11T08:11:58.494Z,4.18
2023-03-11T08:14:24.813Z,4.07
2023-03-11T08:16:51.143Z,3.99
2023-03-11T08:19:17.472Z,4.07
2023-03-11T08:21:43.774Z,4.04
2023-03-11T08:24:10.077Z,3.89
2023-03-11T08:26:36.396Z,4.02
2023-03-11T08:29:02.713Z,3.91
2023-03-11T08:31:29.159Z,3.79
2023-03-11T08:33:55.529Z,3.70
2023-03-11T08:36:21.941Z,3.74
2023-03-11T08:38:48.322Z,3.78
2023-03-11T08:41:14.699Z,3.68
2023-03-11T08:43:41.030Z,3.83
2023-03-11T08:46:07.532Z,3.94
2023-03-11T08:48:33.999Z,4.02
2023-03-11T08:51:00.323Z,4.05
2023-03-11T08:53:26.642Z,4.13
2023-03-11T08:55:52.991Z,4.13
2023-03-11T08:58:19.308Z,4.15
2023-03-11T09:00:45.677Z,4.22
2023-03-11T09:03:12.069Z,4.18
2023-03-11T09:05:38.439Z,4.15
2023-03-11T09:08:05.740Z,4.11
2023-03-11T09:10:32.161Z,4.12
2023-03-11T09:12:58.475Z,4.21
2023-03-11T09:15:24.781Z,4.13
2023-03-11T09:17:51.088Z,4.14
2023-03-11T09:20:17.401Z,4.25
2023-03-11T09:22:43.721Z,4.30
2023-03-11T09:25:10.028Z,4.19
2023-03-11T09:27:36.371Z,4.24
2023-03-11T09:30:02.688Z,4.33
2023-03-11T09:32:29.012Z,4.23
2023-03-11T09:34:55.327Z,4.28
2023-03-11T09:37:21.636Z,4.21
2023-03-11T09:39:47.940Z,4.28
2023-03-11T09:42:14.249Z,4.41
2023-03-11T09:44:40.570Z,4.20
2023-03-11T09:47:06.888Z,4.13
2023-03-11T09:49:33.193Z,4.12
2023-03-11T09:51:59.539Z,4.11
2023-03-11T09:54:25.858Z,3.96
2023-03-11T09:56:52.168Z,3.96
2023-03-11T09:59:18.494Z,3.90
2023-03-11T10:01:44.854Z,3.90
2023-03-11T10:04:11.196Z,3.94
2023-03-11T10:06:37.524Z,3.98
2023-03-11T10:09:03.835Z,4.01
2023-03-11T10:11:30.156Z,4.07
2023-03-11T10:13:56.488Z,4.07
2023-03-11T10:16:22.825Z,4.02
2023-03-11T10:18:49.144Z,4.11
2023-03-11T10:21:15.457Z,4.13
2023-03-11T10:23:41.766Z,4.14
2023-03-11T10:26:08.093Z,4.13
2023-03-11T10:28:34.449Z,4.06
2023-03-11T10:31:00.760Z,4.31
2023-03-11T10:33:27.128Z,4.26
2023-03-11T10:35:53.454Z,4.41
2023-03-11T10:38:19.790Z,4.49
2023-03-11T10:40:46.114Z,4.53
2023-03-11T10:43:12.411Z,4.50
2023-03-11T10:45:38.788Z,4.50
2023-03-11T10:48:05.155Z,4.52
2023-03-11T10:50:31.462Z,4.41
2023-03-11T10:52:57.762Z,4.48
2023-03-11T10:55:24.071Z,4.51
2023-03-11T10:57:50.375Z,4.38
2023-03-11T11:00:16.679Z,4.45
2023-03-11T11:02:43.903Z,4.54
2023-03-11T11:05:10.222Z,4.64
2023-03-11T11:07:36.547Z,4.79
2023-03-11T11:10:02.861Z,4.66
2023-03-11T11:12:29.167Z,4.66
2023-03-11T11:14:55.480Z,4.63
2023-03-11T11:17:21.786Z,4.72
2023-03-11T11:19:48.097Z,4.79
2023-03-11T11:22:14.434Z,4.79
2023-03-11T11:24:40.738Z,4.85
2023-03-11T11:27:07.046Z,4.89
2023-03-11T11:29:33.386Z,4.94
2023-03-11T11:31:59.710Z,5.07
2023-03-11T11:34:26.048Z,5.26
2023-03-11T11:36:52.385Z,5.24
2023-03-11T11:39:18.690Z,5.19
2023-03-11T11:41:45.033Z,5.17
2023-03-11T11:44:11.364Z,5.22
2023-03-11T11:46:37.666Z,5.27
2023-03-11T11:49:03.990Z,5.41
2023-03-11T11:51:30.315Z,5.40
2023-03-11T11:53:56.638Z,5.34
2023-03-11T11:56:22.964Z,5.31
2023-03-11T11:58:49.292Z,5.35
2023-03-11T12:01:15.599Z,5.46
2023-03-11T12:03:41.963Z,5.53
2023-03-11T12:06:08.297Z,5.38
2023-03-11T12:08:34.624Z,5.36
2023-03-11T12:11:00.916Z,5.37
2023-03-11T12:13:27.217Z,5.37
2023-03-11T12:15:53.600Z,5.44
2023-03-11T12:18:19.940Z,5.40
2023-03-11T12:20:46.246Z,5.40
2023-03-11T12:23:12.558Z,5.34
2023-03-11T12:25:38.887Z,5.26
2023-03-11T12:28:05.213Z,5.20
2023-03-11T12:30:31.553Z,5.30
2023-03-11T12:32:57.876Z,5.34
2023-03-11T12:35:24.213Z,5.44
2023-03-11T12:37:50.575Z,5.63
2023-03-11T12:40:16.894Z,5.61
2023-03-11T12:42:43.211Z,5.58
2023-03-11T12:45:09.530Z,5.61
2023-03-11T12:47:35.948Z,5.57
2023-03-11T12:50:02.275Z,5.56
2023-03-11T12:52:28.577Z,5.58
2023-03-11T12:54:54.875Z,5.58
2023-03-11T12:57:21.198Z,5.58
2023-03-11T12:59:47.519Z,5.69
2023-03-11T13:02:13.834Z,5.65
2023-03-11T13:04:40.165Z,5.62
2023-03-11T13:07:06.478Z,5.71
2023-03-11T13:09:32.795Z,5.64
2023-03-11T13:11:59.113Z,5.62
2023-03-11T13:14:25.420Z,5.69
2023-03-11T13:16:51.736Z,5.60
2023-03-11T13:19:18.051Z,5.72
2023-03-11T13:21:44.374Z,5.66
2023-03-11T13:24:10.710Z,5.53
2023-03-11T13:26:37.056Z,5.61
2023-03-11T13:29:03.408Z,5.52
2023-03-11T13:31:29.841Z,5.56
2023-03-11T13:33:56.177Z,5.58
2023-03-11T13:36:22.491Z,5.59
2023-03-11T13:38:48.801Z,5.61
2023-03-11T13:41:15.109Z,5.47
2023-03-11T13:43:41.425Z,5.43
2023-03-11T13:46:07.842Z,5.45
2023-03-11T13:48:36.144Z,5.42
2023-03-11T13:51:03.781Z,5.52
2023-03-11T13:53:30.095Z,5.55
2023-03-11T13:55:56.442Z,5.58
2023-03-11T13:58:22.772Z,5.48
2023-03-11T14:00:49.109Z,5.50
2023-03-11T14:03:15.461Z,5.58
2023-03-11T14:05:41.789Z,5.46
2023-03-11T14:08:08.100Z,5.51
2023-03-11T14:10:34.437Z,5.44
2023-03-11T14:13:00.759Z,5.35
2023-03-11T14:15:27.080Z,5.45
2023-03-11T14:17:53.397Z,5.38
2023-03-11T14:20:19.722Z,5.54
2023-03-11T14:22:46.058Z,5.55
2023-03-11T14:25:12.379Z,5.45
2023-03-11T14:27:38.703Z,5.43
2023-03-11T14:30:05.059Z,5.38
2023-03-11T14:32:31.432Z,5.42
2023-03-11T14:34:57.803Z,5.45
2023-03-11T14:37:24.107Z,5.32
2023-03-11T14:39:53.390Z,5.35
2023-03-11T14:42:20.295Z,5.35
2023-03-11T14:44:46.625Z,5.41
2023-03-11T14:47:12.929Z,5.35
2023-03-11T14:49:39.230Z,5.38
2023-03-11T14:52:05.557Z,5.38
2023-03-11T14:54:31.865Z,5.33
2023-03-11T14:56:58.181Z,5.28
2023-03-11T14:59:24.495Z,5.31
2023-03-11T15:01:50.845Z,5.29
2023-03-11T15:04:17.150Z,5.41
2023-03-11T15:06:43.467Z,5.53
2023-03-11T15:09:09.830Z,5.43
2023-03-11T15:11:36.162Z,5.60
2023-03-11T15:14:02.462Z,5.46
2023-03-11T15:16:28.807Z,5.34
2023-03-11T15:18:55.141Z,5.49
2023-03-11T15:21:21.474Z,5.39
2023-03-11T15:23:47.779Z,5.37
2023-03-11T15:26:14.102Z,5.39
2023-03-11T15:28:40.403Z,5.39
2023-03-11T15:31:06.742Z,5.39
2023-03-11T15:33:33.081Z,5.32
2023-03-11T15:35:59.423Z,5.43
2023-03-11T15:38:25.809Z,5.48
2023-03-11T15:40:52.135Z,5.43
2023-03-11T15:43:18.446Z,5.31
2023-03-11T15:45:44.757Z,5.32
2023-03-11T15:48:11.198Z,5.25
2023-03-11T15:50:52.287Z,5.29
2023-03-11T15:53:19.117Z,5.36
2023-03-11T15:55:45.437Z,5.20
2023-03-11T15:58:11.771Z,5.33
2023-03-11T16:00:38.082Z,5.31
2023-03-11T16:03:04.423Z,5.42
2023-03-11T16:05:30.904Z,5.42
2023-03-11T16:07:57.241Z,5.43
2023-03-11T16:10:23.553Z,5.35
2023-03-11T16:12:49.864Z,5.36
2023-03-11T16:15:16.197Z,5.28
2023-03-11T16:17:49.915Z,5.37
2023-03-11T16:20:16.479Z,5.40
2023-03-11T16:22:42.823Z,5.41
2023-03-11T16:25:09.161Z,5.40
2023-03-11T16:27:35.476Z,5.26
2023-03-11T16:30:01.841Z,5.25
2023-03-11T16:32:28.213Z,5.18
2023-03-11T16:34:54.564Z,5.14
2023-03-11T16:37:20.889Z,5.25
2023-03-11T16:39:47.212Z,5.22
2023-03-11T16:42:13.540Z,5.23
2023-03-11T16:44:39.843Z,5.16
2023-03-11T16:47:06.169Z,5.16
2023-03-11T16:49:32.494Z,5.14
2023-03-11T16:51:58.898Z,5.19
2023-03-11T16:54:25.252Z,5.16
2023-03-11T16:56:51.578Z,5.07
2023-03-11T16:59:17.898Z,5.22
2023-03-11T17:01:44.261Z,5.17
2023-03-11T17:04:10.606Z,5.07
2023-03-11T17:06:36.948Z,5.06
2023-03-11T17:09:03.256Z,5.13
2023-03-11T17:11:29.566Z,5.09
2023-03-11T17:14:03.273Z,5.05
2023-03-11T17:16:40.116Z,5.11
2023-03-11T17:19:06.437Z,5.09
2023-03-11T17:21:32.762Z,5.10
2023-03-11T17:23:59.075Z,5.08
2023-03-11T17:26:25.390Z,4.97
2023-03-11T17:28:51.716Z,4.94
2023-03-11T17:31:18.092Z,4.94
2023-03-11T17:33:44.457Z,4.91
2023-03-11T17:36:10.854Z,4.99
2023-03-11T17:38:37.213Z,4.97
2023-03-11T17:41:03.543Z,4.86
2023-03-11T17:43:29.866Z,4.92
2023-03-11T17:45:56.190Z,4.96
2023-03-11T17:48:22.491Z,4.90
2023-03-11T17:50:48.831Z,4.81
2023-03-11T17:53:15.150Z,4.85
2023-03-11T17:55:41.471Z,4.78
2023-03-11T17:58:07.803Z,4.84
2023-03-11T18:00:34.138Z,4.90
2023-03-11T18:03:00.479Z,4.87
2023-03-11T18:05:26.799Z,4.85
2023-03-11T18:07:53.105Z,5.02
2023-03-11T18:10:19.433Z,4.92
2023-03-11T18:12:45.757Z,4.84
2023-03-11T18:15:12.087Z,4.95
2023-03-11T18:17:38.410Z,4.92
2023-03-11T18:20:04.732Z,4.81
2023-03-11T18:22:34.107Z,4.89
2023-03-11T18:25:01.544Z,4.86
2023-03-11T18:27:27.855Z,4.84
2023-03-11T18:29:54.159Z,4.78
2023-03-11T18:32:20.526Z,4.74
2023-03-11T18:34:46.883Z,4.65
2023-03-11T18:37:13.227Z,4.66
2023-03-11T18:39:39.558Z,4.80
2023-03-11T18:42:05.877Z,4.68
2023-03-11T18:44:32.191Z,4.81
2023-03-11T18:46:58.519Z,4.99
2023-03-11T18:49:24.850Z,4.79
2023-03-11T18:51:51.187Z,4.92
2023-03-11T18:54:17.506Z,4.81
2023-03-11T18:56:43.837Z,4.70
2023-03-11T18:59:10.187Z,4.82
2023-03-11T19:01:36.565Z,4.77
2023-03-11T19:04:02.961Z,4.98
2023-03-11T19:06:29.290Z,4.99
2023-03-11T19:08:55.644Z,4.78
2023-03-11T19:11:21.996Z,4.80
2023-03-11T19:13:48.376Z,4.71
2023-03-11T19:16:14.717Z,4.61
2023-03-11T19:18:41.035Z,4.59
2023-03-11T19:21:07.376Z,4.62
2023-03-11T19:23:33.703Z,4.61
2023-03-11T19:26:03.443Z,4.60
2023-03-11T19:28:30.057Z,4.62
2023-03-11T19:30:56.405Z,4.63
2023-03-11T19:33:22.771Z,4.63
2023-03-11T19:35:49.127Z,4.78
2023-03-11T19:38:15.456Z,4.70
2023-03-11T19:40:41.783Z,4.65
2023-03-11T19:43:08.170Z,4.54
2023-03-11T19:45:34.517Z,4.60
2023-03-11T19:48:00.856Z,4.60
2023-03-11T19:50:27.156Z,4.53
2023-03-11T19:52:53.531Z,4.58
2023-03-11T19:55:19.866Z,4.66
2023-03-11T19:57:46.171Z,4.77
2023-03-11T20:00:12.505Z,4.67
2023-03-11T20:02:38.848Z,4.65
2023-03-11T20:05:05.288Z,4.66
2023-03-11T20:07:31.640Z,4.67
2023-03-11T20:09:57.962Z,4.71
2023-03-11T20:12:24.310Z,4.74
2023-03-11T20:14:50.654Z,4.75
2023-03-11T20:17:16.972Z,4.81
2023-03-11T20:19:43.378Z,4.77
2023-03-11T20:22:09.747Z,4.78
2023-03-11T20:24:36.069Z,4.80
2023-03-11T20:27:02.477Z,4.93
2023-03-11T20:29:28.888Z,4.88
2023-03-11T20:31:55.247Z,4.84
2023-03-11T20:34:21.623Z,4.89
2023-03-11T20:36:47.949Z,4.88
2023-03-11T20:39:14.273Z,4.87
2023-03-11T20:41:40.590Z,4.78
2023-03-11T20:44:06.961Z,4.75
2023-03-11T20:46:33.322Z,4.77
2023-03-11T20:48:59.653Z,4.73
2023-03-11T20:51:26.134Z,4.75
2023-03-11T20:53:52.478Z,4.86
2023-03-11T20:56:18.861Z,4.84
2023-03-11T20:58:45.170Z,4.81
2023-03-11T21:01:11.510Z,4.78
2023-03-11T21:03:38.015Z,4.73
2023-03-11T21:06:04.404Z,4.71
2023-03-11T21:08:30.804Z,4.68
2023-03-11T21:10:57.209Z,4.78
2023-03-11T21:13:23.522Z,4.71
2023-03-11T21:15:49.925Z,4.73
2023-03-11T21:18:16.440Z,4.77
2023-03-11T21:20:42.750Z,4.82
2023-03-11T21:23:09.092Z,4.89
2023-03-11T21:25:35.402Z,4.90
2023-03-11T21:28:01.727Z,4.87
2023-03-11T21:30:28.110Z,4.88
2023-03-11T21:32:54.590Z,4.87
2023-03-11T21:35:21.044Z,4.95
2023-03-11T21:37:47.442Z,4.95
2023-03-11T21:40:13.991Z,5.01
2023-03-11T21:42:40.383Z,5.00
2023-03-11T21:45:06.703Z,5.04
2023-03-11T21:47:33.109Z,5.03
2023-03-11T21:49:59.530Z,4.95
2023-03-11T21:52:25.862Z,5.05
2023-03-11T21:54:52.314Z,4.95
2023-03-11T21:57:18.709Z,4.94
2023-03-11T21:59:45.142Z,4.91
2023-03-11T22:02:11.645Z,4.88
2023-03-11T22:04:38.147Z,4.86
2023-03-11T22:07:04.639Z,4.91
2023-03-11T22:09:30.967Z,4.91
2023-03-11T22:11:57.500Z,4.93
2023-03-11T22:14:24.040Z,4.85
2023-03-11T22:16:50.571Z,4.92
2023-03-11T22:19:16.963Z,4.90
2023-03-11T22:21:43.281Z,4.83
2023-03-11T22:24:09.675Z,4.80
2023-03-11T22:26:35.995Z,4.94
2023-03-11T22:29:03.955Z,4.95
2023-03-11T22:31:30.636Z,4.92
2023-03-11T22:33:57.058Z,5.00
2023-03-11T22:36:23.394Z,4.93
2023-03-11T22:38:49.715Z,5.01
2023-03-11T22:41:16.041Z,4.89
2023-03-11T22:43:42.368Z,4.93
2023-03-11T22:46:08.762Z,4.91
2023-03-11T22:48:35.148Z,4.90
2023-03-11T22:51:01.505Z,4.89
2023-03-11T22:53:27.843Z,4.91
2023-03-11T22:55:54.218Z,4.94
2023-03-11T22:58:20.548Z,4.95
2023-03-11T23:00:46.926Z,4.98
2023-03-11T23:03:13.347Z,5.06
2023-03-11T23:05:39.710Z,5.07
2023-03-11T23:08:06.028Z,5.07
2023-03-11T23:10:32.334Z,5.12
2023-03-11T23:12:58.651Z,5.17
2023-03-11T23:15:24.959Z,5.19
2023-03-11T23:17:51.281Z,5.18
2023-03-11T23:20:17.601Z,5.22
2023-03-11T23:22:43.975Z,5.37
2023-03-11T23:25:10.326Z,5.43
2023-03-11T23:27:36.638Z,5.32
2023-03-11T23:30:02.959Z,5.20
2023-03-11T23:32:29.365Z,5.03
2023-03-11T23:34:55.732Z,4.92
2023-03-11T23:37:22.056Z,5.02
2023-03-11T23:39:48.386Z,4.93
2023-03-11T23:42:25.129Z,4.91
2023-03-11T23:44:51.974Z,4.99
2023-03-11T23:47:18.308Z,4.91
2023-03-11T23:49:44.637Z,4.96
2023-03-11T23:52:10.955Z,4.96
2023-03-11T23:54:37.266Z,4.97
2023-03-11T23:57:03.584Z,4.94
2023-03-11T23:59:29.912Z,4.99
